sensor_id;sensor_type;location;lat;lon;timestamp;pressure;altitude;pressure_sealevel;temperature;humidity
49585;BME280;35491;49.142;9.210;2023-06-22T00:00:13;99809.63;;;22.29;69.16
49585;BME280;35491;49.142;9.210;2023-06-22T00:01:14;99811.41;;;22.24;68.43
49585;BME280;35491;49.142;9.210;2023-06-22T00:02:17;99817.66;;;22.24;68.34
49585;BME280;35491;49.142;9.210;2023-06-22T00:03:18;99827.63;;;22.31;68.21
49585;BME280;35491;49.142;9.210;2023-06-22T00:04:22;99827.19;;;22.34;67.98
49585;BME280;35491;49.142;9.210;2023-06-22T00:05:25;99833.00;;;22.37;67.82
49585;BME280;35491;49.142;9.210;2023-06-22T00:06:29;99830.03;;;22.39;67.77
49585;BME280;35491;49.142;9.210;2023-06-22T00:07:30;99830.28;;;22.37;68.76
49585;BME280;35491;49.142;9.210;2023-06-22T00:08:33;99831.34;;;22.36;67.54
49585;BME280;35491;49.142;9.210;2023-06-22T00:09:34;99819.75;;;22.22;68.87
49585;BME280;35491;49.142;9.210;2023-06-22T00:10:38;99820.06;;;22.14;68.55
49585;BME280;35491;49.142;9.210;2023-06-22T00:11:39;99821.13;;;22.13;68.42
49585;BME280;35491;49.142;9.210;2023-06-22T00:12:43;99813.13;;;22.18;68.49
49585;BME280;35491;49.142;9.210;2023-06-22T00:13:44;99813.13;;;22.18;68.50
49585;BME280;35491;49.142;9.210;2023-06-22T00:14:48;99801.78;;;22.21;68.14
49585;BME280;35491;49.142;9.210;2023-06-22T00:15:49;99801.31;;;22.24;68.30
49585;BME280;35491;49.142;9.210;2023-06-22T00:16:53;99804.97;;;22.18;68.26
49585;BME280;35491;49.142;9.210;2023-06-22T00:17:57;99807.06;;;22.16;68.88
49585;BME280;35491;49.142;9.210;2023-06-22T00:19:01;99803.13;;;22.12;68.78
49585;BME280;35491;49.142;9.210;2023-06-22T00:20:04;99797.47;;;22.13;68.99
49585;BME280;35491;49.142;9.210;2023-06-22T00:21:13;99794.97;;;22.12;69.83
49585;BME280;35491;49.142;9.210;2023-06-22T00:22:14;99794.38;;;22.10;69.25
49585;BME280;35491;49.142;9.210;2023-06-22T00:23:18;99786.44;;;22.08;69.29
49585;BME280;35491;49.142;9.210;2023-06-22T00:24:18;99787.72;;;22.06;69.52
49585;BME280;35491;49.142;9.210;2023-06-22T00:25:22;99786.91;;;22.05;69.25
49585;BME280;35491;49.142;9.210;2023-06-22T00:26:23;99787.97;;;22.04;69.25
49585;BME280;35491;49.142;9.210;2023-06-22T00:27:27;99795.75;;;22.01;69.35
49585;BME280;35491;49.142;9.210;2023-06-22T00:28:28;99787.72;;;22.06;69.32
49585;BME280;35491;49.142;9.210;2023-06-22T00:29:32;99789.84;;;22.04;69.34
49585;BME280;35491;49.142;9.210;2023-06-22T00:30:33;99786.78;;;22.12;68.78
49585;BME280;35491;49.142;9.210;2023-06-22T00:31:37;99789.69;;;22.17;69.30
49585;BME280;35491;49.142;9.210;2023-06-22T00:32:38;99790.28;;;22.19;69.33
49585;BME280;35491;49.142;9.210;2023-06-22T00:33:41;99796.69;;;22.25;68.91
49585;BME280;35491;49.142;9.210;2023-06-22T00:34:42;99798.97;;;22.28;68.90
49585;BME280;35491;49.142;9.210;2023-06-22T00:35:45;99803.00;;;22.25;69.09
49585;BME280;35491;49.142;9.210;2023-06-22T00:36:49;99801.25;;;22.31;68.73
49585;BME280;35491;49.142;9.210;2023-06-22T00:37:53;99806.44;;;22.33;68.12
49585;BME280;35491;49.142;9.210;2023-06-22T00:39:01;99808.81;;;22.29;68.59
49585;BME280;35491;49.142;9.210;2023-06-22T00:40:06;99814.63;;;22.33;68.18
49585;BME280;35491;49.142;9.210;2023-06-22T00:41:09;99808.72;;;22.36;67.97
49585;BME280;35491;49.142;9.210;2023-06-22T00:42:14;99809.09;;;22.39;68.08
49585;BME280;35491;49.142;9.210;2023-06-22T00:43:15;99816.25;;;22.40;68.26
49585;BME280;35491;49.142;9.210;2023-06-22T00:44:19;99813.69;;;22.39;68.10
49585;BME280;35491;49.142;9.210;2023-06-22T00:45:20;99808.13;;;22.34;68.40
49585;BME280;35491;49.142;9.210;2023-06-22T00:46:24;99810.84;;;22.34;68.27
49585;BME280;35491;49.142;9.210;2023-06-22T00:47:29;99805.75;;;22.37;68.35
49585;BME280;35491;49.142;9.210;2023-06-22T00:48:30;99812.06;;;22.38;68.16
49585;BME280;35491;49.142;9.210;2023-06-22T00:49:34;99810.97;;;22.39;68.27
49585;BME280;35491;49.142;9.210;2023-06-22T00:50:35;99813.69;;;22.39;68.37
49585;BME280;35491;49.142;9.210;2023-06-22T00:51:39;99818.72;;;22.42;67.78
49585;BME280;35491;49.142;9.210;2023-06-22T00:52:51;99827.75;;;22.42;67.96
49585;BME280;35491;49.142;9.210;2023-06-22T00:53:56;99830.50;;;22.36;68.32
49585;BME280;35491;49.142;9.210;2023-06-22T00:54:58;99828.84;;;22.35;67.95
49585;BME280;35491;49.142;9.210;2023-06-22T00:56:03;99828.84;;;22.35;68.18
49585;BME280;35491;49.142;9.210;2023-06-22T00:57:04;99837.69;;;22.30;68.38
49585;BME280;35491;49.142;9.210;2023-06-22T00:58:12;99836.84;;;22.29;68.73
49585;BME280;35491;49.142;9.210;2023-06-22T00:59:15;99846.09;;;22.28;68.56
49585;BME280;35491;49.142;9.210;2023-06-22T01:00:18;99845.63;;;22.32;68.11
49585;BME280;35491;49.142;9.210;2023-06-22T01:01:20;99849.78;;;22.34;68.02
49585;BME280;35491;49.142;9.210;2023-06-22T01:02:25;99857.25;;;22.39;68.19
49585;BME280;35491;49.142;9.210;2023-06-22T01:03:26;99870.69;;;22.40;67.99
49585;BME280;35491;49.142;9.210;2023-06-22T01:04:34;99873.59;;;22.39;68.18
49585;BME280;35491;49.142;9.210;2023-06-22T01:05:35;99893.31;;;22.41;68.13
49585;BME280;35491;49.142;9.210;2023-06-22T01:06:41;99922.41;;;22.22;69.72
49585;BME280;35491;49.142;9.210;2023-06-22T01:07:52;99961.38;;;22.16;69.98
49585;BME280;35491;49.142;9.210;2023-06-22T01:09:01;99989.50;;;22.09;70.54
49585;BME280;35491;49.142;9.210;2023-06-22T01:10:07;100011.28;;;22.09;70.78
49585;BME280;35491;49.142;9.210;2023-06-22T01:11:13;100016.72;;;22.09;70.74
49585;BME280;35491;49.142;9.210;2023-06-22T01:12:16;100008.75;;;22.15;70.48
49585;BME280;35491;49.142;9.210;2023-06-22T01:13:25;99987.72;;;22.22;70.82
49585;BME280;35491;49.142;9.210;2023-06-22T01:14:28;99959.66;;;22.21;71.22
49585;BME280;35491;49.142;9.210;2023-06-22T01:15:36;99955.94;;;22.16;71.39
49585;BME280;35491;49.142;9.210;2023-06-22T01:16:41;99957.22;;;22.13;71.17
49585;BME280;35491;49.142;9.210;2023-06-22T01:17:45;99957.84;;;22.15;70.94
49585;BME280;35491;49.142;9.210;2023-06-22T01:18:49;99952.41;;;22.15;70.56
49585;BME280;35491;49.142;9.210;2023-06-22T01:19:54;99947.00;;;22.08;70.98
49585;BME280;35491;49.142;9.210;2023-06-22T01:20:56;99935.97;;;22.03;70.81
49585;BME280;35491;49.142;9.210;2023-06-22T01:22:00;99931.25;;;21.92;71.34
49585;BME280;35491;49.142;9.210;2023-06-22T01:23:09;99932.00;;;21.74;72.30
49585;BME280;35491;49.142;9.210;2023-06-22T01:24:15;99924.91;;;21.73;72.55
49585;BME280;35491;49.142;9.210;2023-06-22T01:25:20;99924.09;;;21.72;72.57
49585;BME280;35491;49.142;9.210;2023-06-22T01:26:32;99922.38;;;21.78;72.60
49585;BME280;35491;49.142;9.210;2023-06-22T01:27:39;99923.97;;;21.60;72.86
49585;BME280;35491;49.142;9.210;2023-06-22T01:28:48;99913.34;;;21.52;73.09
49585;BME280;35491;49.142;9.210;2023-06-22T01:29:51;99913.34;;;21.52;73.53
49585;BME280;35491;49.142;9.210;2023-06-22T01:31:00;99901.09;;;21.36;74.60
49585;BME280;35491;49.142;9.210;2023-06-22T01:32:06;99896.09;;;21.33;74.16
49585;BME280;35491;49.142;9.210;2023-06-22T01:33:10;99889.84;;;21.32;74.45
49585;BME280;35491;49.142;9.210;2023-06-22T01:34:12;99885.06;;;21.28;74.86
49585;BME280;35491;49.142;9.210;2023-06-22T01:35:16;99880.41;;;21.35;74.33
49585;BME280;35491;49.142;9.210;2023-06-22T01:36:17;99880.75;;;21.45;73.40
49585;BME280;35491;49.142;9.210;2023-06-22T01:37:22;99882.38;;;21.53;73.00
49585;BME280;35491;49.142;9.210;2023-06-22T01:38:25;99884.84;;;21.61;73.03
49585;BME280;35491;49.142;9.210;2023-06-22T01:39:29;99880.84;;;21.57;73.08
49585;BME280;35491;49.142;9.210;2023-06-22T01:40:31;99880.69;;;21.52;73.21
49585;BME280;35491;49.142;9.210;2023-06-22T01:41:37;99883.78;;;21.30;74.00
49585;BME280;35491;49.142;9.210;2023-06-22T01:42:38;99879.59;;;21.34;74.00
49585;BME280;35491;49.142;9.210;2023-06-22T01:43:43;99874.66;;;21.18;74.56
49585;BME280;35491;49.142;9.210;2023-06-22T01:44:50;99875.88;;;21.22;74.50
49585;BME280;35491;49.142;9.210;2023-06-22T01:45:54;99874.25;;;21.14;74.62
49585;BME280;35491;49.142;9.210;2023-06-22T01:46:56;99873.44;;;21.14;74.63
49585;BME280;35491;49.142;9.210;2023-06-22T01:48:00;99866.34;;;21.13;74.47
49585;BME280;35491;49.142;9.210;2023-06-22T01:49:01;99866.34;;;21.13;74.48
49585;BME280;35491;49.142;9.210;2023-06-22T01:50:05;99861.28;;;21.16;74.35
49585;BME280;35491;49.142;9.210;2023-06-22T01:51:07;99863.13;;;21.23;74.27
49585;BME280;35491;49.142;9.210;2023-06-22T01:52:11;99861.25;;;21.23;73.94
49585;BME280;35491;49.142;9.210;2023-06-22T01:53:12;99854.09;;;21.29;73.31
49585;BME280;35491;49.142;9.210;2023-06-22T01:54:15;99850.50;;;21.35;73.27
49585;BME280;35491;49.142;9.210;2023-06-22T01:55:16;99844.25;;;21.34;73.12
49585;BME280;35491;49.142;9.210;2023-06-22T01:56:23;99851.50;;;21.41;72.52
49585;BME280;35491;49.142;9.210;2023-06-22T01:57:24;99851.06;;;21.44;72.38
49585;BME280;35491;49.142;9.210;2023-06-22T01:58:29;99858.59;;;21.42;72.51
49585;BME280;35491;49.142;9.210;2023-06-22T01:59:32;99857.56;;;21.43;72.78
49585;BME280;35491;49.142;9.210;2023-06-22T02:00:40;99855.59;;;21.50;72.21
49585;BME280;35491;49.142;9.210;2023-06-22T02:01:47;99863.91;;;21.55;71.76
49585;BME280;35491;49.142;9.210;2023-06-22T02:02:54;99872.28;;;21.60;71.86
49585;BME280;35491;49.142;9.210;2023-06-22T02:04:02;99859.50;;;21.61;71.38
49585;BME280;35491;49.142;9.210;2023-06-22T02:05:07;99860.75;;;21.65;71.60
49585;BME280;35491;49.142;9.210;2023-06-22T02:06:13;99858.41;;;21.69;71.28
49585;BME280;35491;49.142;9.210;2023-06-22T02:07:20;99858.03;;;21.65;71.59
49585;BME280;35491;49.142;9.210;2023-06-22T02:08:24;99857.78;;;21.66;71.49
49585;BME280;35491;49.142;9.210;2023-06-22T02:09:29;99856.13;;;21.65;71.30
49585;BME280;35491;49.142;9.210;2023-06-22T02:10:30;99858.91;;;21.59;71.64
49585;BME280;35491;49.142;9.210;2023-06-22T02:11:35;99852.63;;;21.58;71.47
49585;BME280;35491;49.142;9.210;2023-06-22T02:12:37;99849.06;;;21.58;71.59
49585;BME280;35491;49.142;9.210;2023-06-22T02:13:41;99862.88;;;21.56;71.48
49585;BME280;35491;49.142;9.210;2023-06-22T02:15:49;99866.00;;;21.60;71.56
49585;BME280;35491;49.142;9.210;2023-06-22T02:16:51;99859.09;;;21.57;71.51
49585;BME280;35491;49.142;9.210;2023-06-22T02:17:59;99865.47;;;21.44;72.24
49585;BME280;35491;49.142;9.210;2023-06-22T02:19:00;99858.56;;;21.48;71.82
49585;BME280;35491;49.142;9.210;2023-06-22T02:20:11;99864.38;;;21.52;71.88
49585;BME280;35491;49.142;9.210;2023-06-22T02:21:14;99861.81;;;21.57;71.53
49585;BME280;35491;49.142;9.210;2023-06-22T02:22:17;99861.19;;;21.55;71.74
49585;BME280;35491;49.142;9.210;2023-06-22T02:23:18;99863.09;;;21.55;71.47
49585;BME280;35491;49.142;9.210;2023-06-22T02:24:22;99860.16;;;21.56;71.45
49585;BME280;35491;49.142;9.210;2023-06-22T02:25:24;99856.38;;;21.57;71.08
49585;BME280;35491;49.142;9.210;2023-06-22T02:26:27;99860.56;;;21.60;70.94
49585;BME280;35491;49.142;9.210;2023-06-22T02:27:29;99862.63;;;21.64;70.93
49585;BME280;35491;49.142;9.210;2023-06-22T02:28:32;99868.91;;;21.65;70.77
49585;BME280;35491;49.142;9.210;2023-06-22T02:29:33;99858.03;;;21.65;70.84
49585;BME280;35491;49.142;9.210;2023-06-22T02:30:37;99854.94;;;21.61;70.79
49585;BME280;35491;49.142;9.210;2023-06-22T02:31:40;99856.38;;;21.57;71.12
49585;BME280;35491;49.142;9.210;2023-06-22T02:32:43;99860.63;;;21.53;70.96
49585;BME280;35491;49.142;9.210;2023-06-22T02:33:44;99851.84;;;21.51;71.03
49585;BME280;35491;49.142;9.210;2023-06-22T02:34:48;99856.63;;;21.56;70.62
49585;BME280;35491;49.142;9.210;2023-06-22T02:35:50;99853.03;;;21.55;70.75
49585;BME280;35491;49.142;9.210;2023-06-22T02:36:56;99847.22;;;21.51;70.89
49585;BME280;35491;49.142;9.210;2023-06-22T02:37:57;99850.16;;;21.50;71.24
49585;BME280;35491;49.142;9.210;2023-06-22T02:39:01;99842.16;;;21.55;70.58
49585;BME280;35491;49.142;9.210;2023-06-22T02:40:05;99848.22;;;21.57;70.54
49585;BME280;35491;49.142;9.210;2023-06-22T02:41:10;99846.16;;;21.59;70.57
49585;BME280;35491;49.142;9.210;2023-06-22T02:42:13;99837.56;;;21.62;70.61
49585;BME280;35491;49.142;9.210;2023-06-22T02:43:21;99849.88;;;21.65;70.06
49585;BME280;35491;49.142;9.210;2023-06-22T02:44:21;99840.44;;;21.68;70.08
49585;BME280;35491;49.142;9.210;2023-06-22T02:45:25;99846.56;;;21.56;70.39
49585;BME280;35491;49.142;9.210;2023-06-22T02:46:27;99848.28;;;21.50;70.55
49585;BME280;35491;49.142;9.210;2023-06-22T02:47:33;99847.28;;;21.45;70.80
49585;BME280;35491;49.142;9.210;2023-06-22T02:48:34;99852.72;;;21.45;71.34
49585;BME280;35491;49.142;9.210;2023-06-22T02:49:38;99843.00;;;21.30;71.54
49585;BME280;35491;49.142;9.210;2023-06-22T02:50:40;99846.00;;;21.22;72.22
49585;BME280;35491;49.142;9.210;2023-06-22T02:51:45;99840.81;;;21.14;72.31
49585;BME280;35491;49.142;9.210;2023-06-22T02:52:47;99841.22;;;21.17;72.87
49585;BME280;35491;49.142;9.210;2023-06-22T02:53:51;99843.34;;;21.09;72.64
49585;BME280;35491;49.142;9.210;2023-06-22T02:54:56;99836.31;;;21.01;73.17
49585;BME280;35491;49.142;9.210;2023-06-22T02:56:01;99845.28;;;21.01;73.28
49585;BME280;35491;49.142;9.210;2023-06-22T02:57:05;99849.47;;;20.97;73.28
49585;BME280;35491;49.142;9.210;2023-06-22T02:58:15;99848.88;;;20.95;73.33
49585;BME280;35491;49.142;9.210;2023-06-22T02:59:17;99840.75;;;20.95;73.66
49585;BME280;35491;49.142;9.210;2023-06-22T03:00:25;99838.03;;;20.95;73.55
49585;BME280;35491;49.142;9.210;2023-06-22T03:01:31;99831.94;;;21.00;73.37
49585;BME280;35491;49.142;9.210;2023-06-22T03:02:44;99845.13;;;20.96;73.38
49585;BME280;35491;49.142;9.210;2023-06-22T03:03:46;99839.47;;;20.98;73.48
49585;BME280;35491;49.142;9.210;2023-06-22T03:04:49;99840.25;;;21.05;73.36
49585;BME280;35491;49.142;9.210;2023-06-22T03:05:50;99843.59;;;21.07;73.47
49585;BME280;35491;49.142;9.210;2023-06-22T03:06:54;99844.25;;;21.02;72.93
49585;BME280;35491;49.142;9.210;2023-06-22T03:07:55;99840.91;;;21.00;73.36
49585;BME280;35491;49.142;9.210;2023-06-22T03:08:59;99840.25;;;21.05;73.29
49585;BME280;35491;49.142;9.210;2023-06-22T03:10:01;99832.44;;;21.15;72.69
49585;BME280;35491;49.142;9.210;2023-06-22T03:11:04;99831.16;;;21.18;72.72
49585;BME280;35491;49.142;9.210;2023-06-22T03:12:06;99833.22;;;21.23;72.30
49585;BME280;35491;49.142;9.210;2023-06-22T03:13:21;99832.09;;;21.05;73.27
49585;BME280;35491;49.142;9.210;2023-06-22T03:14:21;99832.09;;;21.05;73.54
49585;BME280;35491;49.142;9.210;2023-06-22T03:15:26;99838.38;;;21.06;73.35
49585;BME280;35491;49.142;9.210;2023-06-22T03:16:29;99834.00;;;21.04;73.73
49585;BME280;35491;49.142;9.210;2023-06-22T03:17:33;99827.53;;;20.99;73.55
49585;BME280;35491;49.142;9.210;2023-06-22T03:18:37;99829.63;;;20.97;74.01
49585;BME280;35491;49.142;9.210;2023-06-22T03:19:40;99828.63;;;20.91;73.93
49585;BME280;35491;49.142;9.210;2023-06-22T03:20:41;99825.47;;;20.94;74.06
49585;BME280;35491;49.142;9.210;2023-06-22T03:21:45;99825.66;;;20.99;73.62
49585;BME280;35491;49.142;9.210;2023-06-22T03:22:46;99819.66;;;20.91;73.94
49585;BME280;35491;49.142;9.210;2023-06-22T03:23:49;99825.75;;;20.86;73.98
49585;BME280;35491;49.142;9.210;2023-06-22T03:24:50;99829.31;;;20.80;74.49
49585;BME280;35491;49.142;9.210;2023-06-22T03:25:55;99828.50;;;20.79;74.62
49585;BME280;35491;49.142;9.210;2023-06-22T03:26:56;99828.06;;;20.82;74.52
49585;BME280;35491;49.142;9.210;2023-06-22T03:28:00;99818.66;;;20.85;74.14
49585;BME280;35491;49.142;9.210;2023-06-22T03:29:01;99821.41;;;20.78;74.49
49585;BME280;35491;49.142;9.210;2023-06-22T03:30:06;99824.34;;;20.77;74.67
49585;BME280;35491;49.142;9.210;2023-06-22T03:31:08;99816.19;;;20.77;74.84
49585;BME280;35491;49.142;9.210;2023-06-22T03:32:14;99808.03;;;20.77;74.67
49585;BME280;35491;49.142;9.210;2023-06-22T03:33:16;99809.28;;;20.74;74.99
49585;BME280;35491;49.142;9.210;2023-06-22T03:34:22;99805.53;;;20.75;75.19
49585;BME280;35491;49.142;9.210;2023-06-22T03:35:26;99812.19;;;20.79;74.58
49585;BME280;35491;49.142;9.210;2023-06-22T03:36:30;99814.66;;;20.87;74.64
49585;BME280;35491;49.142;9.210;2023-06-22T03:37:36;99815.91;;;20.92;74.05
49585;BME280;35491;49.142;9.210;2023-06-22T03:38:39;99812.56;;;20.90;74.17
49585;BME280;35491;49.142;9.210;2023-06-22T03:39:40;99814.25;;;20.84;74.63
49585;BME280;35491;49.142;9.210;2023-06-22T03:40:44;99807.75;;;20.92;74.24
49585;BME280;35491;49.142;9.210;2023-06-22T03:41:44;99813.38;;;20.90;74.33
49585;BME280;35491;49.142;9.210;2023-06-22T03:42:48;99808.13;;;20.95;73.93
49585;BME280;35491;49.142;9.210;2023-06-22T03:43:49;99809.19;;;20.94;74.08
49585;BME280;35491;49.142;9.210;2023-06-22T03:44:52;99814.66;;;20.87;74.72
49585;BME280;35491;49.142;9.210;2023-06-22T03:45:53;99807.16;;;20.83;75.12
49585;BME280;35491;49.142;9.210;2023-06-22T03:46:57;99806.13;;;20.77;75.27
49585;BME280;35491;49.142;9.210;2023-06-22T03:47:57;99801.09;;;20.81;75.11
49585;BME280;35491;49.142;9.210;2023-06-22T03:49:01;99811.78;;;20.82;74.92
49585;BME280;35491;49.142;9.210;2023-06-22T03:50:06;99807.56;;;20.86;74.86
49585;BME280;35491;49.142;9.210;2023-06-22T03:51:10;99808.78;;;20.91;74.48
49585;BME280;35491;49.142;9.210;2023-06-22T03:52:10;99815.81;;;20.98;73.79
49585;BME280;35491;49.142;9.210;2023-06-22T03:53:14;99809.97;;;21.01;74.12
49585;BME280;35491;49.142;9.210;2023-06-22T03:54:15;99815.56;;;21.07;73.70
49585;BME280;35491;49.142;9.210;2023-06-22T03:55:19;99813.03;;;21.12;73.51
49585;BME280;35491;49.142;9.210;2023-06-22T03:56:20;99810.31;;;21.12;73.52
49585;BME280;35491;49.142;9.210;2023-06-22T03:57:25;99818.84;;;21.15;72.99
49585;BME280;35491;49.142;9.210;2023-06-22T03:58:26;99812.38;;;21.16;73.19
49585;BME280;35491;49.142;9.210;2023-06-22T03:59:35;99816.13;;;21.15;72.72
49585;BME280;35491;49.142;9.210;2023-06-22T04:00:37;99811.97;;;21.13;73.23
49585;BME280;35491;49.142;9.210;2023-06-22T04:01:41;99811.59;;;21.09;73.58
49585;BME280;35491;49.142;9.210;2023-06-22T04:02:42;99811.63;;;21.02;73.39
49585;BME280;35491;49.142;9.210;2023-06-22T04:03:46;99805.34;;;21.02;73.70
49585;BME280;35491;49.142;9.210;2023-06-22T04:04:49;99805.78;;;21.06;73.40
49585;BME280;35491;49.142;9.210;2023-06-22T04:05:55;99807.41;;;21.07;73.40
49585;BME280;35491;49.142;9.210;2023-06-22T04:06:57;99801.09;;;21.13;73.37
49585;BME280;35491;49.142;9.210;2023-06-22T04:08:00;99808.28;;;21.00;73.39
49585;BME280;35491;49.142;9.210;2023-06-22T04:09:01;99809.56;;;20.98;73.83
49585;BME280;35491;49.142;9.210;2023-06-22T04:10:05;99808.72;;;20.97;73.82
49585;BME280;35491;49.142;9.210;2023-06-22T04:11:06;99804.97;;;20.98;73.70
49585;BME280;35491;49.142;9.210;2023-06-22T04:12:10;99806.00;;;20.97;73.61
49585;BME280;35491;49.142;9.210;2023-06-22T04:13:10;99809.53;;;21.04;73.69
49585;BME280;35491;49.142;9.210;2023-06-22T04:14:14;99808.41;;;21.12;73.00
49585;BME280;35491;49.142;9.210;2023-06-22T04:15:15;99807.38;;;21.13;73.45
49585;BME280;35491;49.142;9.210;2023-06-22T04:16:19;99802.31;;;21.17;72.96
49585;BME280;35491;49.142;9.210;2023-06-22T04:17:20;99805.66;;;21.19;73.05
49585;BME280;35491;49.142;9.210;2023-06-22T04:18:25;99802.28;;;21.24;72.70
49585;BME280;35491;49.142;9.210;2023-06-22T04:19:26;99810.00;;;21.27;72.94
49585;BME280;35491;49.142;9.210;2023-06-22T04:20:30;99801.22;;;21.25;73.22
49585;BME280;35491;49.142;9.210;2023-06-22T04:21:34;99792.41;;;21.29;73.03
49585;BME280;35491;49.142;9.210;2023-06-22T04:22:38;99791.97;;;21.32;72.70
49585;BME280;35491;49.142;9.210;2023-06-22T04:23:38;99792.59;;;21.34;72.89
49585;BME280;35491;49.142;9.210;2023-06-22T04:24:43;99789.41;;;21.38;72.63
49585;BME280;35491;49.142;9.210;2023-06-22T04:25:44;99793.34;;;21.42;72.52
49585;BME280;35491;49.142;9.210;2023-06-22T04:26:47;99792.50;;;21.41;72.60
49585;BME280;35491;49.142;9.210;2023-06-22T04:27:48;99788.78;;;21.35;73.14
49585;BME280;35491;49.142;9.210;2023-06-22T04:29:04;99797.13;;;21.41;72.73
49585;BME280;35491;49.142;9.210;2023-06-22T04:30:09;99796.34;;;21.33;73.31
49585;BME280;35491;49.142;9.210;2023-06-22T04:31:11;99795.13;;;21.29;73.40
49585;BME280;35491;49.142;9.210;2023-06-22T04:32:14;99801.41;;;21.30;73.58
49585;BME280;35491;49.142;9.210;2023-06-22T04:33:16;99804.78;;;21.25;73.85
49585;BME280;35491;49.142;9.210;2023-06-22T04:34:19;99801.44;;;21.23;73.94
49585;BME280;35491;49.142;9.210;2023-06-22T04:35:20;99797.72;;;21.17;74.13
49585;BME280;35491;49.142;9.210;2023-06-22T04:36:26;99786.84;;;21.17;73.94
49585;BME280;35491;49.142;9.210;2023-06-22T04:37:33;99796.44;;;21.20;73.86
49585;BME280;35491;49.142;9.210;2023-06-22T04:38:37;99790.97;;;21.27;73.65
49585;BME280;35491;49.142;9.210;2023-06-22T04:39:43;99789.69;;;21.29;73.27
49585;BME280;35491;49.142;9.210;2023-06-22T04:40:44;99791.97;;;21.32;73.53
49585;BME280;35491;49.142;9.210;2023-06-22T04:41:48;99801.78;;;21.33;73.16
49585;BME280;35491;49.142;9.210;2023-06-22T04:42:49;99792.97;;;21.38;73.17
49585;BME280;35491;49.142;9.210;2023-06-22T04:43:57;99786.25;;;21.41;72.59
49585;BME280;35491;49.142;9.210;2023-06-22T04:45:00;99784.16;;;21.43;72.63
49585;BME280;35491;49.142;9.210;2023-06-22T04:46:16;99786.25;;;21.41;72.69
49585;BME280;35491;49.142;9.210;2023-06-22T04:47:19;99790.47;;;21.37;73.46
49585;BME280;35491;49.142;9.210;2023-06-22T04:48:23;99791.25;;;21.44;73.08
49585;BME280;35491;49.142;9.210;2023-06-22T04:49:24;99783.25;;;21.49;72.79
49585;BME280;35491;49.142;9.210;2023-06-22T04:50:36;99787.41;;;21.51;72.40
49585;BME280;35491;49.142;9.210;2023-06-22T04:51:40;99784.84;;;21.57;72.25
49585;BME280;35491;49.142;9.210;2023-06-22T04:52:45;99774.84;;;21.50;72.87
49585;BME280;35491;49.142;9.210;2023-06-22T04:53:49;99780.53;;;21.49;72.58
49585;BME280;35491;49.142;9.210;2023-06-22T04:54:50;99775.47;;;21.53;72.78
49585;BME280;35491;49.142;9.210;2023-06-22T04:55:56;99773.53;;;21.60;72.31
49585;BME280;35491;49.142;9.210;2023-06-22T04:56:59;99774.78;;;21.64;72.13
49585;BME280;35491;49.142;9.210;2023-06-22T04:58:00;99777.88;;;21.68;71.97
49585;BME280;35491;49.142;9.210;2023-06-22T04:59:06;99773.41;;;21.73;72.13
49585;BME280;35491;49.142;9.210;2023-06-22T05:00:08;99771.06;;;21.77;71.83
49585;BME280;35491;49.142;9.210;2023-06-22T05:01:17;99772.75;;;21.78;71.82
49585;BME280;35491;49.142;9.210;2023-06-22T05:02:18;99771.69;;;21.79;71.55
49585;BME280;35491;49.142;9.210;2023-06-22T05:03:22;99773.75;;;21.84;71.55
49585;BME280;35491;49.142;9.210;2023-06-22T05:04:26;99773.28;;;21.87;71.31
49585;BME280;35491;49.142;9.210;2023-06-22T05:05:31;99778.31;;;21.83;71.46
49585;BME280;35491;49.142;9.210;2023-06-22T05:06:35;99782.50;;;21.86;71.45
49585;BME280;35491;49.142;9.210;2023-06-22T05:07:36;99781.66;;;21.85;71.58
49585;BME280;35491;49.142;9.210;2023-06-22T05:08:42;99774.56;;;21.84;71.61
49585;BME280;35491;49.142;9.210;2023-06-22T05:09:44;99773.28;;;21.87;71.64
49585;BME280;35491;49.142;9.210;2023-06-22T05:10:47;99771.16;;;21.89;71.56
49585;BME280;35491;49.142;9.210;2023-06-22T05:11:50;99771.16;;;21.89;71.77
49585;BME280;35491;49.142;9.210;2023-06-22T05:12:52;99781.22;;;21.88;71.63
49585;BME280;35491;49.142;9.210;2023-06-22T05:13:55;99770.34;;;21.88;71.62
49585;BME280;35491;49.142;9.210;2023-06-22T05:14:56;99769.34;;;21.83;71.86
49585;BME280;35491;49.142;9.210;2023-06-22T05:16:00;99764.91;;;21.88;71.25
49585;BME280;35491;49.142;9.210;2023-06-22T05:17:02;99768.28;;;21.84;71.49
49585;BME280;35491;49.142;9.210;2023-06-22T05:18:13;99760.28;;;21.89;71.24
49585;BME280;35491;49.142;9.210;2023-06-22T05:19:17;99763.66;;;21.84;71.25
49585;BME280;35491;49.142;9.210;2023-06-22T05:20:17;99760.28;;;21.89;71.05
49585;BME280;35491;49.142;9.210;2023-06-22T05:21:22;99766.75;;;21.88;71.09
49585;BME280;35491;49.142;9.210;2023-06-22T05:22:23;99762.78;;;21.90;71.18
49585;BME280;35491;49.142;9.210;2023-06-22T05:23:27;99754.75;;;21.95;71.06
49585;BME280;35491;49.142;9.210;2023-06-22T05:24:30;99755.38;;;21.97;70.84
49585;BME280;35491;49.142;9.210;2023-06-22T05:25:34;99753.41;;;22.05;70.77
49585;BME280;35491;49.142;9.210;2023-06-22T05:26:34;99748.81;;;22.05;70.79
49585;BME280;35491;49.142;9.210;2023-06-22T05:27:38;99750.59;;;22.11;70.42
49585;BME280;35491;49.142;9.210;2023-06-22T05:28:40;99756.28;;;22.10;70.66
49585;BME280;35491;49.142;9.210;2023-06-22T05:29:46;99741.75;;;22.16;70.26
49585;BME280;35491;49.142;9.210;2023-06-22T05:30:51;99748.38;;;22.20;70.24
49585;BME280;35491;49.142;9.210;2023-06-22T05:31:52;99747.69;;;22.25;70.18
49585;BME280;35491;49.142;9.210;2023-06-22T05:32:57;99753.53;;;22.28;69.54
49585;BME280;35491;49.142;9.210;2023-06-22T05:33:59;99746.56;;;22.33;69.52
49585;BME280;35491;49.142;9.210;2023-06-22T05:35:06;99752.59;;;22.35;69.39
49585;BME280;35491;49.142;9.210;2023-06-22T05:36:08;99753.22;;;22.37;69.19
49585;BME280;35491;49.142;9.210;2023-06-22T05:37:13;99747.31;;;22.40;69.52
49585;BME280;35491;49.142;9.210;2023-06-22T05:38:17;99746.63;;;22.44;69.27